Terminal Aerodrome Forecast
Issued by NWS

Current Version | Previous Version | Text Only | Print | Product List | Glossary Off
Versions: 1 2 3 4 5 6 7 8 9 10 11 12 13 14 15

000
FTUS41 KPBZ 111100
TAFHLG
TAF
KHLG 111139Z 1112/1212 VRB03KT 2SM BR SCT035 BKN060=

USA.gov is the U.S. government's official web portal to all federal, state and local government web resources and services.